createdAt,value
2023-02-14T00:03:17.258Z,88.37
2023-02-14T00:06:44.616Z,88.01
2023-02-14T00:10:12.991Z,87.86
2023-02-14T00:14:00.307Z,87.98
2023-02-14T00:17:27.479Z,88.15
2023-02-14T00:21:02.768Z,87.90
2023-02-14T00:24:30.638Z,87.90
2023-02-14T00:27:57.897Z,87.98
2023-02-14T00:31:25.714Z,88.33
2023-02-14T00:34:52.948Z,88.01
2023-02-14T00:38:20.196Z,88.03
2023-02-14T00:41:47.711Z,87.98
2023-02-14T00:45:19.194Z,87.77
2023-02-14T00:48:46.587Z,88.10
2023-02-14T00:52:13.894Z,87.81
2023-02-14T00:55:41.607Z,87.65
2023-02-14T00:59:08.915Z,87.68
2023-02-14T01:02:36.511Z,87.74
2023-02-14T01:06:07.143Z,87.77
2023-02-14T01:09:34.654Z,87.59
2023-02-14T01:13:02.697Z,87.82
2023-02-14T01:16:31.015Z,87.86
2023-02-14T01:19:58.543Z,87.89
2023-02-14T01:23:25.970Z,87.74
2023-02-14T01:27:04.406Z,87.95
2023-02-14T01:30:32.875Z,87.81
2023-02-14T01:34:01.096Z,87.85
2023-02-14T01:37:30.696Z,87.95
2023-02-14T01:40:58.342Z,88.15
2023-02-14T01:44:59.536Z,87.93
2023-02-14T01:48:27.643Z,88.05
2023-02-14T01:52:04.301Z,88.03
2023-02-14T01:55:35.035Z,88.06
2023-02-14T01:59:04.223Z,88.16
2023-02-14T02:02:32.338Z,88.02
2023-02-14T02:06:05.034Z,88.23
2023-02-14T02:09:35.934Z,88.14
2023-02-14T02:13:07.495Z,88.01
2023-02-14T02:16:47.170Z,88.09
2023-02-14T02:20:58.472Z,88.14
2023-02-14T02:24:33.848Z,88.00
2023-02-14T02:32:57.699Z,88.14
2023-02-14T02:36:42.399Z,88.11
2023-02-14T02:40:29.660Z,88.51
2023-02-14T02:44:22.880Z,88.23
2023-02-14T02:47:59.404Z,88.22
2023-02-14T02:51:53.117Z,88.50
2023-02-14T02:55:26.061Z,88.43
2023-02-14T02:58:57.666Z,88.48
2023-02-14T03:02:31.150Z,88.52
2023-02-14T03:06:02.503Z,88.66
2023-02-14T03:09:54.848Z,88.63
2023-02-14T03:13:56.738Z,88.57
2023-02-14T03:17:31.547Z,88.68
2023-02-14T03:21:07.250Z,88.67
2023-02-14T03:24:50.636Z,88.79
2023-02-14T03:28:21.794Z,88.91
2023-02-14T03:31:59.465Z,88.86
2023-02-14T03:35:32.259Z,88.89
2023-02-14T03:39:05.295Z,88.86
2023-02-14T03:42:37.609Z,88.94
2023-02-14T03:46:11.004Z,88.88
2023-02-14T03:49:44.521Z,89.06
2023-02-14T03:53:15.047Z,89.14
2023-02-14T03:56:48.359Z,89.09
2023-02-14T04:00:19.473Z,89.11
2023-02-14T04:03:47.633Z,89.05
2023-02-14T04:07:47.403Z,88.98
2023-02-14T04:11:18.005Z,88.84
2023-02-14T04:14:45.539Z,88.84
2023-02-14T04:18:31.004Z,88.96
2023-02-14T04:21:58.104Z,89.09
2023-02-14T04:25:28.235Z,89.25
2023-02-14T04:28:55.537Z,89.15
2023-02-14T04:32:26.329Z,89.18
2023-02-14T04:35:53.776Z,89.09
2023-02-14T04:39:20.949Z,89.09
2023-02-14T04:42:48.646Z,89.16
2023-02-14T04:46:16.267Z,89.17
2023-02-14T04:49:43.761Z,89.15
2023-02-14T04:53:11.127Z,89.35
2023-02-14T04:56:38.409Z,89.40
2023-02-14T05:00:06.425Z,89.41
2023-02-14T05:03:33.777Z,89.25
2023-02-14T05:07:00.959Z,89.25
2023-02-14T05:10:29.270Z,89.47
2023-02-14T05:13:57.096Z,89.45
2023-02-14T05:17:24.636Z,89.45
2023-02-14T05:20:54.518Z,89.52
2023-02-14T05:24:21.779Z,89.51
2023-02-14T05:27:48.974Z,89.35
2023-02-14T05:31:16.468Z,89.51
2023-02-14T05:34:43.681Z,89.46
2023-02-14T05:38:13.259Z,89.58
2023-02-14T05:45:05.423Z,89.56
2023-02-14T05:48:32.644Z,89.78
2023-02-14T05:51:59.827Z,89.72
2023-02-14T05:55:27.396Z,89.50
2023-02-14T05:58:57.572Z,89.45
2023-02-14T06:02:25.116Z,89.55
2023-02-14T06:05:53.256Z,89.55
2023-02-14T06:09:20.500Z,89.65
2023-02-14T06:12:49.879Z,89.73
2023-02-14T06:16:17.257Z,89.63
2023-02-14T06:19:44.532Z,89.56
2023-02-14T06:23:11.977Z,89.57
2023-02-14T06:26:39.258Z,89.67
2023-02-14T06:30:09.342Z,89.69
2023-02-14T06:33:36.856Z,89.53
2023-02-14T06:37:04.053Z,89.63
2023-02-14T06:40:31.371Z,89.76
2023-02-14T06:43:58.581Z,89.58
2023-02-14T06:47:25.987Z,89.37
2023-02-14T06:50:53.455Z,89.28
2023-02-14T06:54:21.050Z,89.38
2023-02-14T06:57:48.180Z,89.16
2023-02-14T07:01:15.279Z,89.29
2023-02-14T07:04:42.405Z,89.35
2023-02-14T07:08:10.534Z,89.06
2023-02-14T07:11:38.111Z,89.37
2023-02-14T07:15:08.692Z,89.11
2023-02-14T07:18:36.152Z,89.06
2023-02-14T07:22:03.359Z,89.28
2023-02-14T07:25:30.609Z,89.23
2023-02-14T07:28:57.824Z,89.25
2023-02-14T07:32:25.287Z,89.46
2023-02-14T07:36:07.805Z,89.16
2023-02-14T07:39:35.290Z,89.21
2023-02-14T07:43:02.651Z,89.08
2023-02-14T07:46:30.050Z,89.14
2023-02-14T07:50:17.703Z,88.85
2023-02-14T07:53:45.158Z,88.83
2023-02-14T07:57:15.497Z,88.44
2023-02-14T08:00:42.639Z,88.33
2023-02-14T08:04:10.150Z,88.42
2023-02-14T08:07:37.620Z,88.22
2023-02-14T08:11:04.833Z,88.02
2023-02-14T08:14:32.366Z,87.86
2023-02-14T08:18:00.147Z,87.71
2023-02-14T08:21:27.504Z,87.43
2023-02-14T08:24:54.627Z,87.42
2023-02-14T08:28:22.332Z,87.13
2023-02-14T08:31:50.434Z,87.03
2023-02-14T08:35:18.058Z,86.86
2023-02-14T08:38:47.663Z,86.58
2023-02-14T08:42:14.856Z,86.62
2023-02-14T08:45:42.710Z,86.47
2023-02-14T08:49:10.691Z,85.86
2023-02-14T08:52:37.926Z,85.34
2023-02-14T08:56:08.008Z,85.22
2023-02-14T08:59:35.486Z,85.12
2023-02-14T09:03:02.780Z,84.91
2023-02-14T09:06:30.901Z,85.01
2023-02-14T09:09:58.101Z,84.98
2023-02-14T09:13:25.443Z,84.14
2023-02-14T09:16:53.481Z,83.82
2023-02-14T09:20:21.852Z,82.99
2023-02-14T09:23:49.338Z,81.17
2023-02-14T09:27:16.471Z,80.69
2023-02-14T09:30:43.679Z,80.04
2023-02-14T09:34:11.040Z,81.62
2023-02-14T09:37:38.359Z,79.81
2023-02-14T09:41:11.007Z,80.74
2023-02-14T09:44:44.307Z,80.86
2023-02-14T09:48:21.966Z,80.46
2023-02-14T09:51:52.667Z,77.59
2023-02-14T09:55:24.336Z,78.47
2023-02-14T09:59:20.745Z,79.16
2023-02-14T10:02:57.771Z,78.76
2023-02-14T10:06:43.007Z,78.29
2023-02-14T10:10:16.082Z,78.45
2023-02-14T10:13:48.911Z,78.24
2023-02-14T10:17:37.558Z,78.42
2023-02-14T10:21:13.387Z,78.06
2023-02-14T10:24:46.691Z,78.26
2023-02-14T10:28:41.459Z,77.48
2023-02-14T10:32:15.408Z,77.45
2023-02-14T10:35:47.907Z,76.48
2023-02-14T10:39:45.904Z,76.61
2023-02-14T10:43:24.003Z,76.73
2023-02-14T10:46:59.446Z,74.18
2023-02-14T10:50:33.437Z,75.46
2023-02-14T10:54:21.900Z,75.76
2023-02-14T10:57:53.286Z,74.94
2023-02-14T11:01:21.798Z,75.76
2023-02-14T11:04:50.198Z,75.98
2023-02-14T11:08:24.760Z,74.35
2023-02-14T11:11:54.787Z,75.21
2023-02-14T11:15:27.649Z,75.65
2023-02-14T11:19:12.201Z,75.84
2023-02-14T11:23:00.121Z,74.80
2023-02-14T11:26:31.600Z,70.65
2023-02-14T11:30:20.629Z,72.38
2023-02-14T11:33:51.506Z,72.78
2023-02-14T11:37:31.617Z,71.76
2023-02-14T11:40:58.807Z,73.10
2023-02-14T11:44:28.237Z,73.90
2023-02-14T11:48:11.383Z,74.08
2023-02-14T11:51:41.969Z,73.21
2023-02-14T11:55:23.323Z,73.49
2023-02-14T11:58:55.440Z,73.77
2023-02-14T12:02:38.574Z,73.96
2023-02-14T12:06:06.917Z,73.90
2023-02-14T12:09:36.048Z,73.65
2023-02-14T12:13:05.619Z,73.85
2023-02-14T12:16:45.592Z,73.80
2023-02-14T12:20:18.058Z,73.97
2023-02-14T12:23:56.209Z,74.48
2023-02-14T12:27:29.616Z,73.94
2023-02-14T12:31:00.592Z,73.82
2023-02-14T12:34:28.563Z,73.41
2023-02-14T12:38:06.779Z,73.22
2023-02-14T12:41:45.845Z,72.48
2023-02-14T12:45:25.519Z,71.78
2023-02-14T12:49:15.109Z,72.06
2023-02-14T12:52:57.395Z,71.93
2023-02-14T12:56:41.211Z,71.97
2023-02-14T13:00:24.220Z,71.33
2023-02-14T13:04:49.787Z,71.06
2023-02-14T13:08:31.183Z,70.90
2023-02-14T13:12:08.729Z,70.81
2023-02-14T13:15:47.153Z,70.36
2023-02-14T13:19:30.911Z,70.52
2023-02-14T13:23:06.673Z,70.88
2023-02-14T13:26:38.219Z,70.85
2023-02-14T13:30:13.580Z,71.24
2023-02-14T13:33:45.876Z,71.11
2023-02-14T13:37:17.916Z,71.34
2023-02-14T13:40:48.991Z,71.39
2023-02-14T13:44:47.692Z,71.41
2023-02-14T13:48:18.420Z,71.04
2023-02-14T13:51:50.353Z,70.59
2023-02-14T13:55:33.628Z,70.72
2023-02-14T13:59:05.630Z,70.64
2023-02-14T14:02:46.493Z,70.77
2023-02-14T14:06:16.322Z,70.93
2023-02-14T14:10:06.244Z,70.72
2023-02-14T14:14:02.797Z,70.69
2023-02-14T14:17:30.166Z,70.89
2023-02-14T14:24:52.179Z,70.75
2023-02-14T14:28:32.113Z,71.26
2023-02-14T14:32:08.850Z,71.36
2023-02-14T14:35:57.255Z,71.29
2023-02-14T14:39:32.689Z,71.34
2023-02-14T14:43:07.368Z,71.62
2023-02-14T14:46:38.275Z,71.55
2023-02-14T14:50:22.333Z,71.43
2023-02-14T14:53:53.915Z,71.68
2023-02-14T14:57:21.568Z,71.85
2023-02-14T15:00:54.428Z,72.17
2023-02-14T15:04:30.103Z,72.36
2023-02-14T15:08:22.055Z,72.21
2023-02-14T15:12:08.879Z,72.51
2023-02-14T15:15:36.160Z,72.49
2023-02-14T15:19:13.059Z,72.80
2023-02-14T15:22:45.858Z,73.02
2023-02-14T15:26:19.521Z,73.17
2023-02-14T15:30:23.827Z,73.31
2023-02-14T15:34:13.858Z,73.39
2023-02-14T15:37:50.371Z,73.68
2023-02-14T15:41:20.839Z,73.80
2023-02-14T15:44:50.985Z,73.74
2023-02-14T15:48:26.441Z,74.01
2023-02-14T15:51:54.418Z,74.25
2023-02-14T15:55:27.991Z,74.63
2023-02-14T15:59:01.602Z,74.73
2023-02-14T16:02:52.769Z,75.18
2023-02-14T16:06:38.801Z,75.37
2023-02-14T16:10:26.079Z,75.43
2023-02-14T16:13:53.862Z,75.65
2023-02-14T16:17:34.910Z,75.64
2023-02-14T16:21:24.698Z,75.78
2023-02-14T16:24:51.924Z,75.77
2023-02-14T16:28:20.146Z,76.09
2023-02-14T16:32:14.203Z,76.15
2023-02-14T16:35:37.500Z,76.26
2023-02-14T16:39:07.127Z,76.37
2023-02-14T16:42:35.762Z,76.30
2023-02-14T16:46:03.125Z,76.47
2023-02-14T16:49:30.305Z,76.70
2023-02-14T16:52:58.479Z,76.77
2023-02-14T16:56:29.735Z,76.83
2023-02-14T16:59:57.709Z,76.86
2023-02-14T17:03:46.167Z,77.20
2023-02-14T17:07:15.739Z,77.23
2023-02-14T17:10:47.553Z,77.28
2023-02-14T17:14:19.006Z,77.43
2023-02-14T17:17:50.203Z,77.48
2023-02-14T17:21:21.246Z,77.75
2023-02-14T17:24:59.542Z,77.85
2023-02-14T17:28:27.183Z,77.94
2023-02-14T17:32:05.161Z,78.05
2023-02-14T17:35:34.625Z,78.30
2023-02-14T17:39:03.649Z,78.51
2023-02-14T17:42:32.167Z,78.47
2023-02-14T17:45:59.453Z,78.78
2023-02-14T17:49:26.813Z,79.04
2023-02-14T17:52:57.630Z,79.16
2023-02-14T17:56:26.854Z,79.12
2023-02-14T17:59:54.526Z,79.32
2023-02-14T18:03:21.714Z,79.58
2023-02-14T18:06:48.874Z,79.87
2023-02-14T18:10:16.233Z,79.84
2023-02-14T18:13:43.436Z,80.18
2023-02-14T18:17:12.944Z,80.34
2023-02-14T18:20:40.156Z,80.39
2023-02-14T18:24:08.617Z,80.39
2023-02-14T18:27:36.015Z,80.58
2023-02-14T18:31:08.037Z,80.51
2023-02-14T18:34:38.659Z,80.87
2023-02-14T18:38:06.382Z,80.92
2023-02-14T18:41:33.709Z,81.06
2023-02-14T18:45:00.969Z,81.09
2023-02-14T18:48:28.331Z,81.01
2023-02-14T18:51:57.326Z,81.09
2023-02-14T18:55:24.940Z,81.01
2023-02-14T18:58:57.189Z,81.07
2023-02-14T19:02:24.342Z,80.97
2023-02-14T19:05:53.244Z,81.41
2023-02-14T19:09:20.557Z,81.42
2023-02-14T19:12:47.785Z,81.77
2023-02-14T19:16:17.334Z,81.67
2023-02-14T19:19:44.990Z,82.12
2023-02-14T19:23:12.317Z,82.43
2023-02-14T19:26:41.076Z,82.36
2023-02-14T19:30:10.878Z,82.57
2023-02-14T19:33:42.834Z,82.53
2023-02-14T19:37:10.272Z,82.45
2023-02-14T19:40:37.513Z,82.33
2023-02-14T19:44:07.002Z,82.39
2023-02-14T19:47:46.650Z,82.73
2023-02-14T19:51:21.709Z,82.75
2023-02-14T19:54:50.138Z,82.72
2023-02-14T19:58:17.348Z,82.95
2023-02-14T20:01:46.707Z,83.08
2023-02-14T20:05:13.979Z,83.05
2023-02-14T20:08:41.202Z,83.10
2023-02-14T20:12:10.724Z,83.52
2023-02-14T20:15:40.041Z,83.30
2023-02-14T20:19:12.106Z,83.37
2023-02-14T20:22:39.246Z,83.55
2023-02-14T20:26:17.971Z,83.39
2023-02-14T20:29:48.456Z,83.59
2023-02-14T20:33:15.554Z,83.56
2023-02-14T20:36:44.016Z,83.83
2023-02-14T20:40:31.374Z,84.01
2023-02-14T20:44:04.238Z,84.12
2023-02-14T20:47:31.672Z,84.31
2023-02-14T20:50:59.531Z,84.26
2023-02-14T20:54:28.830Z,84.56
2023-02-14T20:57:59.751Z,84.58
2023-02-14T21:01:27.728Z,84.64
2023-02-14T21:05:00.241Z,84.64
2023-02-14T21:08:27.842Z,84.78
2023-02-14T21:12:00.469Z,84.87
2023-02-14T21:15:28.028Z,84.94
2023-02-14T21:18:59.188Z,84.97
2023-02-14T21:22:26.531Z,84.97
2023-02-14T21:25:54.280Z,85.07
2023-02-14T21:29:21.780Z,85.20
2023-02-14T21:32:49.242Z,85.34
2023-02-14T21:36:19.119Z,85.48
2023-02-14T21:39:55.341Z,85.64
2023-02-14T21:43:22.677Z,85.78
2023-02-14T21:46:50.041Z,85.61
2023-02-14T21:50:32.853Z,85.83
2023-02-14T21:54:00.933Z,85.84
2023-02-14T21:57:39.605Z,85.90
2023-02-14T22:01:07.571Z,85.87
2023-02-14T22:04:38.192Z,85.93
2023-02-14T22:08:08.653Z,85.93
2023-02-14T22:11:36.950Z,86.02
2023-02-14T22:15:07.425Z,86.14
2023-02-14T22:18:37.591Z,86.20
2023-02-14T22:22:04.730Z,86.37
2023-02-14T22:25:31.887Z,86.57
2023-02-14T22:29:00.973Z,86.67
2023-02-14T22:32:38.258Z,86.62
2023-02-14T22:36:16.888Z,86.83
2023-02-14T22:39:46.660Z,86.93
2023-02-14T22:43:17.259Z,86.94
2023-02-14T22:46:54.531Z,86.95
2023-02-14T22:50:41.906Z,86.76
2023-02-14T22:54:29.611Z,86.65
2023-02-14T22:57:57.043Z,86.78
2023-02-14T23:01:25.648Z,86.70
2023-02-14T23:04:57.254Z,86.81
2023-02-14T23:08:24.794Z,86.67
2023-02-14T23:11:53.234Z,86.74
2023-02-14T23:15:38.535Z,86.79
2023-02-14T23:19:23.306Z,86.97
2023-02-14T23:22:50.747Z,86.92
2023-02-14T23:26:21.617Z,86.89
2023-02-14T23:29:48.937Z,86.99
2023-02-14T23:33:16.510Z,87.03
2023-02-14T23:36:43.917Z,87.06
2023-02-14T23:40:13.141Z,87.29
2023-02-14T23:43:40.686Z,87.16
2023-02-14T23:47:10.565Z,87.27
2023-02-14T23:50:38.371Z,87.35
2023-02-14T23:54:06.502Z,87.56
2023-02-14T23:57:33.806Z,87.55
